createdAt,value
2023-05-12T00:00:13.205Z,3.42
2023-05-12T00:02:41.941Z,3.85
2023-05-12T00:05:09.213Z,3.60
2023-05-12T00:07:36.524Z,3.95
2023-05-12T00:10:04.132Z,3.67
2023-05-12T00:12:31.141Z,3.72
2023-05-12T00:14:58.197Z,3.65
2023-05-12T00:17:25.418Z,3.72
2023-05-12T00:19:52.329Z,4.03
2023-05-12T00:22:19.292Z,3.97
2023-05-12T00:24:46.247Z,3.75
2023-05-12T00:27:13.998Z,4.00
2023-05-12T00:29:40.720Z,3.67
2023-05-12T00:32:08.327Z,3.65
2023-05-12T00:34:35.199Z,3.72
2023-05-12T00:37:02.173Z,4.00
2023-05-12T00:39:29.043Z,3.60
2023-05-12T00:41:57.611Z,3.83
2023-05-12T00:44:24.523Z,3.83
2023-05-12T00:46:52.834Z,3.90
2023-05-12T00:49:20.521Z,4.00
2023-05-12T00:51:47.517Z,3.42
2023-05-12T00:54:14.362Z,4.10
2023-05-12T00:56:41.291Z,3.47
2023-05-12T00:59:08.987Z,3.78
2023-05-12T01:01:39.709Z,3.97
2023-05-12T01:04:06.865Z,3.92
2023-05-12T01:06:41.264Z,3.90
2023-05-12T01:09:09.443Z,3.75
2023-05-12T01:11:37.683Z,3.83
2023-05-12T01:14:05.192Z,3.43
2023-05-12T01:16:50.557Z,3.38
2023-05-12T01:19:44.054Z,3.80
2023-05-12T01:22:12.799Z,3.17
2023-05-12T01:24:51.386Z,3.53
2023-05-12T01:29:48.746Z,3.45
2023-05-12T01:32:18.712Z,3.35
2023-05-12T01:34:45.836Z,4.10
2023-05-12T01:37:12.945Z,3.95
2023-05-12T01:39:40.970Z,3.60
2023-05-12T01:42:10.853Z,3.83
2023-05-12T01:44:37.720Z,4.00
2023-05-12T01:47:04.793Z,3.80
2023-05-12T01:49:32.998Z,4.10
2023-05-12T01:51:59.879Z,3.45
2023-05-12T01:54:29.957Z,3.70
2023-05-12T01:56:56.906Z,3.58
2023-05-12T01:59:24.661Z,3.60
2023-05-12T02:01:52.683Z,3.90
2023-05-12T02:04:27.703Z,3.03
2023-05-12T02:06:55.999Z,3.80
2023-05-12T02:09:23.090Z,3.83
2023-05-12T02:11:50.586Z,3.97
2023-05-12T02:14:17.357Z,3.75
2023-05-12T02:16:44.744Z,3.80
2023-05-12T02:19:11.816Z,3.35
2023-05-12T02:21:38.509Z,3.53
2023-05-12T02:24:05.521Z,3.85
2023-05-12T02:26:32.255Z,3.40
2023-05-12T02:28:59.444Z,3.92
2023-05-12T02:31:26.560Z,3.47
2023-05-12T02:33:54.133Z,3.67
2023-05-12T02:36:20.868Z,3.50
2023-05-12T02:38:47.532Z,3.60
2023-05-12T02:41:14.940Z,3.55
2023-05-12T02:43:42.085Z,3.80
2023-05-12T02:46:08.836Z,3.50
2023-05-12T02:48:35.783Z,3.40
2023-05-12T02:51:02.536Z,3.63
2023-05-12T02:53:29.443Z,3.47
2023-05-12T02:55:56.333Z,3.33
2023-05-12T02:58:23.403Z,3.40
2023-05-12T03:00:56.874Z,3.70
2023-05-12T03:03:30.280Z,3.72
2023-05-12T03:05:57.332Z,3.50
2023-05-12T03:08:24.330Z,3.30
2023-05-12T03:10:51.083Z,3.78
2023-05-12T03:13:17.800Z,3.70
2023-05-12T03:15:44.604Z,3.50
2023-05-12T03:18:11.619Z,3.90
2023-05-12T03:20:38.509Z,3.55
2023-05-12T03:23:05.518Z,3.28
2023-05-12T03:25:32.781Z,3.85
2023-05-12T03:27:59.716Z,3.55
2023-05-12T03:30:26.852Z,3.75
2023-05-12T03:32:53.795Z,3.30
2023-05-12T03:35:21.039Z,4.03
2023-05-12T03:37:48.794Z,3.38
2023-05-12T03:40:18.644Z,3.42
2023-05-12T03:42:46.775Z,3.38
2023-05-12T03:45:13.567Z,3.40
2023-05-12T03:47:40.809Z,3.70
2023-05-12T03:50:08.515Z,3.55
2023-05-12T03:52:38.454Z,3.33
2023-05-12T03:55:07.121Z,3.30
2023-05-12T03:57:36.362Z,3.40
2023-05-12T04:02:39.423Z,3.30
2023-05-12T04:05:08.675Z,3.73
2023-05-12T04:07:35.785Z,3.38
2023-05-12T04:10:03.083Z,3.10
2023-05-12T04:12:30.077Z,3.22
2023-05-12T04:14:57.554Z,3.28
2023-05-12T04:17:24.580Z,3.05
2023-05-12T04:19:53.477Z,3.25
2023-05-12T04:22:20.264Z,3.00
2023-05-12T04:24:47.101Z,2.97
2023-05-12T04:27:14.683Z,3.03
2023-05-12T04:29:42.145Z,3.00
2023-05-12T04:32:09.231Z,2.75
2023-05-12T04:34:36.487Z,2.88
2023-05-12T04:37:03.364Z,3.17
2023-05-12T04:39:30.384Z,3.00
2023-05-12T04:41:59.911Z,2.75
2023-05-12T04:44:27.750Z,3.20
2023-05-12T04:46:56.381Z,2.70
2023-05-12T04:49:23.572Z,2.78
2023-05-12T04:51:50.356Z,2.90
2023-05-12T04:54:17.162Z,3.38
2023-05-12T04:56:43.835Z,2.97
2023-05-12T04:59:11.743Z,2.75
2023-05-12T05:01:39.611Z,2.75
2023-05-12T05:04:06.689Z,2.60
2023-05-12T05:06:33.347Z,2.47
2023-05-12T05:09:01.014Z,2.90
2023-05-12T05:11:28.115Z,2.33
2023-05-12T05:13:55.069Z,2.60
2023-05-12T05:16:22.928Z,2.45
2023-05-12T05:18:50.689Z,2.42
2023-05-12T05:21:17.586Z,2.60
2023-05-12T05:23:44.529Z,2.10
2023-05-12T05:26:12.229Z,2.50
2023-05-12T05:28:41.869Z,2.10
2023-05-12T05:31:08.767Z,2.22
2023-05-12T05:33:35.835Z,2.20
2023-05-12T05:36:03.758Z,2.10
2023-05-12T05:38:32.735Z,2.25
2023-05-12T05:40:59.553Z,2.30
2023-05-12T05:43:27.397Z,2.28
2023-05-12T05:45:56.081Z,2.22
2023-05-12T05:48:23.365Z,2.17
2023-05-12T05:50:54.182Z,2.20
2023-05-12T05:53:23.014Z,2.13
2023-05-12T05:55:50.682Z,2.20
2023-05-12T05:58:17.581Z,1.73
2023-05-12T06:00:45.882Z,1.98
2023-05-12T06:03:12.814Z,1.98
2023-05-12T06:05:42.197Z,1.77
2023-05-12T06:08:11.163Z,2.08
2023-05-12T06:10:38.147Z,1.80
2023-05-12T06:13:05.082Z,1.80
2023-05-12T06:15:32.854Z,1.70
2023-05-12T06:17:59.796Z,1.70
2023-05-12T06:20:26.709Z,1.85
2023-05-12T06:22:53.467Z,1.40
2023-05-12T06:25:20.356Z,1.67
2023-05-12T06:27:47.280Z,1.90
2023-05-12T06:30:15.997Z,1.67
2023-05-12T06:32:43.141Z,1.50
2023-05-12T06:35:10.246Z,1.63
2023-05-12T06:37:37.150Z,1.52
2023-05-12T06:40:04.370Z,1.92
2023-05-12T06:42:31.179Z,1.60
2023-05-12T06:44:58.145Z,1.50
2023-05-12T06:47:24.805Z,1.50
2023-05-12T06:49:51.596Z,1.88
2023-05-12T06:52:20.522Z,1.40
2023-05-12T06:54:47.249Z,1.50
2023-05-12T06:57:13.958Z,1.48
2023-05-12T06:59:40.614Z,1.60
2023-05-12T07:02:07.536Z,1.30
2023-05-12T07:04:35.916Z,1.30
2023-05-12T07:07:02.695Z,1.52
2023-05-12T07:09:29.452Z,1.40
2023-05-12T07:11:56.181Z,1.42
2023-05-12T07:14:22.837Z,1.50
2023-05-12T07:16:49.858Z,1.40
2023-05-12T07:19:16.464Z,1.30
2023-05-12T07:21:43.777Z,1.33
2023-05-12T07:24:10.581Z,1.50
2023-05-12T07:26:37.547Z,1.20
2023-05-12T07:29:05.486Z,1.25
2023-05-12T07:31:33.906Z,1.30
2023-05-12T07:34:00.936Z,1.30
2023-05-12T07:36:28.371Z,1.17
2023-05-12T07:38:55.072Z,1.40
2023-05-12T07:41:21.990Z,1.02
2023-05-12T07:43:48.856Z,1.20
2023-05-12T07:46:15.756Z,1.33
2023-05-12T07:48:42.640Z,1.13
2023-05-12T07:51:09.474Z,1.08
2023-05-12T07:53:36.223Z,1.10
2023-05-12T07:56:03.067Z,1.00
2023-05-12T07:58:29.943Z,1.10
2023-05-12T08:00:59.068Z,1.13
2023-05-12T08:05:53.374Z,1.23
2023-05-12T08:08:20.189Z,1.05
2023-05-12T08:10:47.056Z,1.08
2023-05-12T08:13:13.968Z,0.82
2023-05-12T08:15:40.851Z,0.85
2023-05-12T08:18:07.576Z,0.98
2023-05-12T08:20:34.978Z,0.95
2023-05-12T08:23:01.834Z,1.00
2023-05-12T08:25:30.509Z,1.02
2023-05-12T08:27:59.375Z,0.80
2023-05-12T08:30:27.254Z,0.95
2023-05-12T08:32:55.221Z,1.40
2023-05-12T08:35:23.042Z,0.70
2023-05-12T08:37:49.949Z,1.10
2023-05-12T08:40:22.110Z,1.02
2023-05-12T08:42:56.643Z,0.98
2023-05-12T08:45:23.923Z,0.90
2023-05-12T08:47:53.938Z,0.90
2023-05-12T08:50:22.823Z,0.95
2023-05-12T08:52:51.468Z,1.00
2023-05-12T08:55:20.680Z,0.90
2023-05-12T08:57:48.983Z,1.10
2023-05-12T09:00:16.488Z,0.70
2023-05-12T09:02:52.684Z,1.02
2023-05-12T09:05:20.647Z,1.10
2023-05-12T09:07:50.024Z,0.70
2023-05-12T09:13:23.985Z,0.75
2023-05-12T09:15:53.921Z,0.80
2023-05-12T09:18:20.810Z,1.05
2023-05-12T09:20:47.785Z,0.68
2023-05-12T09:23:22.295Z,1.00
2023-05-12T09:26:01.250Z,0.90
2023-05-12T09:28:38.263Z,0.75
2023-05-12T09:31:16.129Z,0.80
2023-05-12T09:33:43.017Z,0.70
2023-05-12T09:36:09.787Z,0.90
2023-05-12T09:38:36.707Z,0.80
2023-05-12T09:41:03.617Z,1.10
2023-05-12T09:43:30.745Z,0.80
2023-05-12T09:45:57.601Z,0.70
2023-05-12T09:48:26.832Z,0.70
2023-05-12T09:50:54.321Z,0.90
2023-05-12T09:53:22.924Z,0.85
2023-05-12T09:55:49.789Z,0.70
2023-05-12T09:58:18.596Z,0.75
2023-05-12T10:03:17.767Z,0.73
2023-05-12T10:05:57.613Z,0.90
2023-05-12T10:08:29.996Z,0.90
2023-05-12T10:10:59.255Z,0.73
2023-05-12T10:15:56.960Z,0.70
2023-05-12T10:18:25.261Z,0.80
2023-05-12T10:20:56.230Z,0.70
2023-05-12T10:23:23.513Z,0.90
2023-05-12T10:25:50.224Z,0.80
2023-05-12T10:28:17.500Z,0.60
2023-05-12T10:30:45.534Z,0.68
2023-05-12T10:33:12.539Z,0.70
2023-05-12T10:35:40.192Z,1.02
2023-05-12T10:38:17.703Z,0.75
2023-05-12T10:41:00.088Z,0.80
2023-05-12T10:43:42.392Z,0.45
2023-05-12T10:46:17.622Z,0.75
2023-05-12T10:48:53.143Z,0.60
2023-05-12T10:51:24.454Z,0.60
2023-05-12T10:53:54.730Z,0.80
2023-05-12T10:56:27.415Z,0.70
2023-05-12T10:59:13.072Z,0.50
2023-05-12T11:01:42.518Z,0.80
2023-05-12T11:06:42.580Z,0.80
2023-05-12T11:09:13.830Z,0.60
2023-05-12T11:11:41.020Z,0.70
2023-05-12T11:14:09.609Z,0.60
2023-05-12T11:16:43.338Z,0.55
2023-05-12T11:19:10.631Z,0.70
2023-05-12T11:21:38.582Z,0.50
2023-05-12T11:24:05.490Z,0.50
2023-05-12T11:26:34.279Z,0.60
2023-05-12T11:29:04.625Z,0.60
2023-05-12T11:31:31.588Z,0.60
2023-05-12T11:34:12.646Z,0.63
2023-05-12T11:36:42.525Z,0.73
2023-05-12T11:39:41.404Z,0.50
2023-05-12T11:42:13.633Z,0.57
2023-05-12T11:44:48.664Z,0.50
2023-05-12T11:47:16.785Z,0.65
2023-05-12T11:49:55.214Z,0.47
2023-05-12T11:52:24.232Z,0.40
2023-05-12T11:54:58.707Z,0.60
2023-05-12T11:57:38.041Z,0.52
2023-05-12T12:00:09.782Z,0.40
2023-05-12T12:02:38.729Z,0.50
2023-05-12T12:07:42.825Z,0.47
2023-05-12T12:10:13.815Z,0.50
2023-05-12T12:12:41.775Z,0.60
2023-05-12T12:15:09.936Z,0.60
2023-05-12T12:17:37.229Z,0.50
2023-05-12T12:20:04.291Z,0.80
2023-05-12T12:22:34.766Z,0.60
2023-05-12T12:25:02.494Z,0.57
2023-05-12T12:27:29.681Z,0.68
2023-05-12T12:29:56.407Z,0.52
2023-05-12T12:32:23.585Z,0.50
2023-05-12T12:34:50.396Z,0.60
2023-05-12T12:37:17.295Z,0.70
2023-05-12T12:39:44.200Z,0.45
2023-05-12T12:42:10.966Z,0.57
2023-05-12T12:44:37.732Z,0.47
2023-05-12T12:47:05.181Z,0.55
2023-05-12T12:49:32.109Z,0.40
2023-05-12T12:51:58.934Z,0.52
2023-05-12T12:54:27.473Z,0.60
2023-05-12T12:56:55.730Z,0.47
2023-05-12T12:59:22.808Z,0.80
2023-05-12T13:01:49.587Z,0.50
2023-05-12T13:04:19.595Z,0.60
2023-05-12T13:06:46.733Z,0.60
2023-05-12T13:09:13.979Z,0.43
2023-05-12T13:11:40.748Z,0.50
2023-05-12T13:14:08.308Z,0.60
2023-05-12T13:16:35.148Z,0.60
2023-05-12T13:19:02.116Z,0.68
2023-05-12T13:21:29.037Z,0.65
2023-05-12T13:23:55.865Z,0.63
2023-05-12T13:26:22.768Z,0.80
2023-05-12T13:28:49.433Z,0.70
2023-05-12T13:31:16.313Z,0.60
2023-05-12T13:33:43.149Z,0.75
2023-05-12T13:36:09.856Z,0.77
2023-05-12T13:38:37.200Z,0.65
2023-05-12T13:41:03.897Z,0.73
2023-05-12T13:43:30.706Z,0.70
2023-05-12T13:45:57.419Z,0.85
2023-05-12T13:48:24.129Z,0.90
2023-05-12T13:50:50.931Z,0.90
2023-05-12T13:53:17.675Z,0.77
2023-05-12T13:55:45.140Z,0.80
2023-05-12T13:58:11.793Z,0.90
2023-05-12T14:00:38.530Z,0.80
2023-05-12T14:03:05.390Z,0.90
2023-05-12T14:05:32.515Z,0.80
2023-05-12T14:07:59.325Z,0.80
2023-05-12T14:10:26.147Z,0.82
2023-05-12T14:12:52.939Z,1.17
2023-05-12T14:15:29.475Z,0.95
2023-05-12T14:18:00.084Z,0.82
2023-05-12T14:20:26.973Z,1.00
2023-05-12T14:22:54.105Z,0.88
2023-05-12T14:25:21.155Z,0.90
2023-05-12T14:27:48.226Z,0.80
2023-05-12T14:30:15.211Z,1.00
2023-05-12T14:32:42.385Z,1.33
2023-05-12T14:35:12.082Z,1.15
2023-05-12T14:37:38.797Z,1.02
2023-05-12T14:40:07.352Z,1.13
2023-05-12T14:42:34.105Z,0.85
2023-05-12T14:45:00.796Z,1.17
2023-05-12T14:47:27.453Z,1.17
2023-05-12T14:49:54.575Z,1.10
2023-05-12T14:52:21.491Z,1.00
2023-05-12T14:54:48.310Z,1.15
2023-05-12T14:57:15.096Z,1.08
2023-05-12T14:59:41.978Z,1.10
2023-05-12T15:02:08.717Z,1.05
2023-05-12T15:04:35.697Z,0.90
2023-05-12T15:07:02.500Z,0.93
2023-05-12T15:09:29.358Z,1.38
2023-05-12T15:11:56.525Z,1.05
2023-05-12T15:16:50.231Z,1.08
2023-05-12T15:19:17.619Z,1.00
2023-05-12T15:21:44.357Z,0.95
2023-05-12T15:24:11.119Z,1.00
2023-05-12T15:26:40.523Z,1.00
2023-05-12T15:29:07.693Z,1.05
2023-05-12T15:31:35.362Z,1.00
2023-05-12T15:34:02.408Z,1.00
2023-05-12T15:36:29.672Z,1.30
2023-05-12T15:38:56.669Z,1.40
2023-05-12T15:41:23.635Z,1.42
2023-05-12T15:43:50.369Z,1.40
2023-05-12T15:46:17.317Z,1.00
2023-05-12T15:48:44.133Z,1.20
2023-05-12T15:51:10.988Z,1.30
2023-05-12T15:53:37.815Z,1.10
2023-05-12T15:56:05.310Z,1.10
2023-05-12T15:58:32.321Z,1.27
2023-05-12T16:00:59.426Z,1.38
2023-05-12T16:03:26.617Z,1.40
2023-05-12T16:05:53.443Z,1.25
2023-05-12T16:08:20.513Z,1.40
2023-05-12T16:10:47.342Z,1.55
2023-05-12T16:13:14.533Z,1.45
2023-05-12T16:15:41.248Z,1.35
2023-05-12T16:18:10.884Z,1.10
2023-05-12T16:20:38.992Z,1.40
2023-05-12T16:23:05.876Z,1.48
2023-05-12T16:25:32.552Z,1.40
2023-05-12T16:27:59.551Z,1.38
2023-05-12T16:30:26.607Z,1.15
2023-05-12T16:32:53.694Z,1.38
2023-05-12T16:35:20.925Z,1.50
2023-05-12T16:37:48.139Z,1.45
2023-05-12T16:40:15.449Z,1.10
2023-05-12T16:42:42.761Z,1.40
2023-05-12T16:45:10.965Z,1.20
2023-05-12T16:47:38.008Z,1.20
2023-05-12T16:50:05.472Z,1.02
2023-05-12T16:52:32.227Z,1.25
2023-05-12T16:54:58.962Z,1.23
2023-05-12T16:57:25.867Z,1.30
2023-05-12T16:59:52.559Z,1.20
2023-05-12T17:02:19.688Z,1.25
2023-05-12T17:04:46.726Z,1.05
2023-05-12T17:07:13.552Z,1.20
2023-05-12T17:09:40.320Z,1.40
2023-05-12T17:12:07.988Z,1.20
2023-05-12T17:14:34.958Z,1.33
2023-05-12T17:17:02.404Z,1.25
2023-05-12T17:19:29.247Z,1.20
2023-05-12T17:21:56.131Z,1.08
2023-05-12T17:24:22.932Z,1.40
2023-05-12T17:26:49.747Z,1.13
2023-05-12T17:29:17.104Z,1.30
2023-05-12T17:31:43.979Z,1.20
2023-05-12T17:34:10.812Z,1.30
2023-05-12T17:36:37.545Z,1.50
2023-05-12T17:39:04.407Z,1.27
2023-05-12T17:41:31.171Z,1.45
2023-05-12T17:43:57.917Z,1.20
2023-05-12T17:46:24.668Z,1.25
2023-05-12T17:48:51.502Z,1.45
2023-05-12T17:51:18.700Z,1.50
2023-05-12T17:53:46.266Z,1.25
2023-05-12T17:56:12.915Z,1.20
2023-05-12T17:58:39.835Z,1.30
2023-05-12T18:01:06.727Z,1.50
2023-05-12T18:03:34.673Z,1.30
2023-05-12T18:06:02.592Z,1.40
2023-05-12T18:08:29.411Z,1.30
2023-05-12T18:10:56.022Z,1.20
2023-05-12T18:13:23.279Z,1.70
2023-05-12T18:15:50.274Z,1.27
2023-05-12T18:18:17.160Z,1.25
2023-05-12T18:20:43.973Z,1.30
2023-05-12T18:23:10.708Z,1.23
2023-05-12T18:25:37.663Z,1.23
2023-05-12T18:28:06.656Z,1.23
2023-05-12T18:30:33.674Z,1.02
2023-05-12T18:33:00.424Z,1.30
2023-05-12T18:35:27.351Z,1.52
2023-05-12T18:37:54.023Z,1.20
2023-05-12T18:40:20.823Z,1.30
2023-05-12T18:42:47.502Z,1.20
2023-05-12T18:45:14.255Z,1.35
2023-05-12T18:47:41.477Z,1.30
2023-05-12T18:50:08.641Z,1.38
2023-05-12T18:52:35.899Z,1.45
2023-05-12T18:55:02.948Z,1.30
2023-05-12T18:57:29.815Z,1.20
2023-05-12T18:59:56.432Z,1.45
2023-05-12T19:02:23.292Z,1.42
2023-05-12T19:04:50.303Z,1.60
2023-05-12T19:07:17.204Z,1.40
2023-05-12T19:09:44.363Z,1.33
2023-05-12T19:12:11.843Z,1.25
2023-05-12T19:14:40.173Z,1.50
2023-05-12T19:17:07.581Z,1.55
2023-05-12T19:19:34.909Z,1.40
2023-05-12T19:22:02.575Z,1.60
2023-05-12T19:24:29.615Z,1.60
2023-05-12T19:26:57.455Z,1.50
2023-05-12T19:29:24.515Z,1.60
2023-05-12T19:31:53.141Z,1.50
2023-05-12T19:34:20.641Z,1.58
2023-05-12T19:36:47.725Z,2.10
2023-05-12T19:39:14.774Z,1.40
2023-05-12T19:41:41.766Z,1.50
2023-05-12T19:44:08.554Z,1.48
2023-05-12T19:46:35.550Z,1.55
2023-05-12T19:49:02.434Z,1.60
2023-05-12T19:51:29.630Z,1.55
2023-05-12T19:53:56.620Z,1.65
2023-05-12T19:56:24.237Z,1.80
2023-05-12T19:58:52.284Z,1.45
2023-05-12T20:01:19.057Z,1.60
2023-05-12T20:03:45.992Z,1.52
2023-05-12T20:06:12.812Z,1.67
2023-05-12T20:08:39.818Z,1.45
2023-05-12T20:11:07.313Z,1.85
2023-05-12T20:13:34.063Z,1.38
2023-05-12T20:16:00.930Z,1.50
2023-05-12T20:18:28.711Z,1.52
2023-05-12T20:20:55.664Z,1.42
2023-05-12T20:23:22.418Z,1.35
2023-05-12T20:25:49.130Z,1.58
2023-05-12T20:28:15.922Z,1.48
2023-05-12T20:30:42.593Z,1.42
2023-05-12T20:33:09.387Z,1.50
2023-05-12T20:35:36.201Z,1.83
2023-05-12T20:38:03.193Z,1.50
2023-05-12T20:40:30.088Z,1.33
2023-05-12T20:42:57.188Z,2.20
2023-05-12T20:45:24.042Z,1.65
2023-05-12T20:47:51.218Z,1.70
2023-05-12T20:50:18.222Z,1.80
2023-05-12T20:52:46.876Z,1.50
2023-05-12T20:55:13.648Z,1.52
2023-05-12T20:57:41.302Z,1.70
2023-05-12T21:00:10.843Z,1.58
2023-05-12T21:02:38.185Z,1.60
2023-05-12T21:05:05.668Z,1.77
2023-05-12T21:07:33.393Z,1.70
2023-05-12T21:10:00.933Z,1.60
2023-05-12T21:12:28.035Z,1.60
2023-05-12T21:14:55.209Z,1.40
2023-05-12T21:17:22.372Z,1.60
2023-05-12T21:19:49.316Z,1.85
2023-05-12T21:22:16.132Z,1.63
2023-05-12T21:24:43.026Z,1.70
2023-05-12T21:27:10.148Z,1.70
2023-05-12T21:29:36.953Z,1.63
2023-05-12T21:32:04.090Z,1.83
2023-05-12T21:34:33.693Z,1.58
2023-05-12T21:37:00.899Z,1.88
2023-05-12T21:39:28.044Z,2.40
2023-05-12T21:41:55.010Z,1.90
2023-05-12T21:44:21.754Z,1.73
2023-05-12T21:46:48.474Z,1.80
2023-05-12T21:49:15.513Z,1.83
2023-05-12T21:51:42.269Z,1.80
2023-05-12T21:54:09.106Z,1.50
2023-05-12T21:56:35.950Z,1.80
2023-05-12T21:59:02.714Z,1.65
2023-05-12T22:01:30.040Z,1.60
2023-05-12T22:03:58.883Z,1.65
2023-05-12T22:06:27.076Z,1.95
2023-05-12T22:08:54.264Z,2.00
2023-05-12T22:11:21.702Z,2.00
2023-05-12T22:13:48.818Z,2.00
2023-05-12T22:16:16.299Z,1.58
2023-05-12T22:18:43.790Z,1.73
2023-05-12T22:21:11.173Z,1.77
2023-05-12T22:23:38.566Z,1.70
2023-05-12T22:26:05.623Z,1.60
2023-05-12T22:28:32.372Z,1.70
2023-05-12T22:30:59.320Z,1.70
2023-05-12T22:33:26.364Z,1.80
2023-05-12T22:35:53.199Z,1.90
2023-05-12T22:38:20.119Z,1.70
2023-05-12T22:40:47.100Z,1.70
2023-05-12T22:43:14.085Z,1.60
2023-05-12T22:45:41.052Z,1.65
2023-05-12T22:48:07.830Z,1.58
2023-05-12T22:50:34.801Z,1.70
2023-05-12T22:53:01.786Z,1.80
2023-05-12T22:55:31.076Z,2.35
2023-05-12T22:57:58.314Z,2.00
2023-05-12T23:00:25.174Z,1.88
2023-05-12T23:02:51.990Z,2.00
2023-05-12T23:05:19.202Z,1.90
2023-05-12T23:07:46.414Z,2.05
2023-05-12T23:10:13.184Z,2.00
2023-05-12T23:12:40.046Z,2.00
2023-05-12T23:15:07.716Z,1.77
2023-05-12T23:17:34.480Z,2.10
2023-05-12T23:20:01.136Z,2.10
2023-05-12T23:22:27.937Z,2.15
2023-05-12T23:24:55.102Z,2.00
2023-05-12T23:27:21.818Z,2.17
2023-05-12T23:29:48.537Z,1.75
2023-05-12T23:32:15.742Z,2.30
2023-05-12T23:34:42.905Z,2.10
2023-05-12T23:37:10.006Z,2.00
2023-05-12T23:39:36.853Z,1.80
2023-05-12T23:42:03.977Z,2.20
2023-05-12T23:44:30.857Z,2.10
2023-05-12T23:46:57.664Z,2.30
2023-05-12T23:49:24.673Z,2.10
2023-05-12T23:51:51.539Z,1.83
2023-05-12T23:54:19.359Z,2.05
2023-05-12T23:56:46.149Z,2.13
2023-05-12T23:59:12.839Z,2.05
